sensor_id;sensor_type;location;lat;lon;timestamp;P1;durP1;ratioP1;P2;durP2;ratioP2
17886;SDS011;9069;52.044;7.472;2022-12-07T00:01:39;9.38;;;5.50;;
17886;SDS011;9069;52.044;7.472;2022-12-07T00:04:09;8.18;;;4.93;;
17886;SDS011;9069;52.044;7.472;2022-12-07T00:06:43;9.48;;;6.00;;
17886;SDS011;9069;52.044;7.472;2022-12-07T00:09:12;7.25;;;5.20;;
17886;SDS011;9069;52.044;7.472;2022-12-07T00:11:40;9.85;;;5.70;;
17886;SDS011;9069;52.044;7.472;2022-12-07T00:14:09;8.27;;;5.53;;
17886;SDS011;9069;52.044;7.472;2022-12-07T00:16:38;6.60;;;5.20;;
17886;SDS011;9069;52.044;7.472;2022-12-07T00:19:05;7.65;;;4.47;;
17886;SDS011;9069;52.044;7.472;2022-12-07T00:21:33;8.55;;;5.15;;
17886;SDS011;9069;52.044;7.472;2022-12-07T00:24:01;7.05;;;4.65;;
17886;SDS011;9069;52.044;7.472;2022-12-07T00:26:37;7.78;;;5.05;;
17886;SDS011;9069;52.044;7.472;2022-12-07T00:29:06;7.95;;;4.75;;
17886;SDS011;9069;52.044;7.472;2022-12-07T00:31:37;5.75;;;4.50;;
17886;SDS011;9069;52.044;7.472;2022-12-07T00:34:06;6.18;;;4.50;;
17886;SDS011;9069;52.044;7.472;2022-12-07T00:36:37;6.50;;;4.45;;
17886;SDS011;9069;52.044;7.472;2022-12-07T00:39:04;10.43;;;5.28;;
17886;SDS011;9069;52.044;7.472;2022-12-07T00:41:31;9.20;;;4.70;;
17886;SDS011;9069;52.044;7.472;2022-12-07T00:43:57;6.85;;;5.03;;
17886;SDS011;9069;52.044;7.472;2022-12-07T00:46:24;7.82;;;5.25;;
17886;SDS011;9069;52.044;7.472;2022-12-07T00:48:52;5.68;;;4.45;;
17886;SDS011;9069;52.044;7.472;2022-12-07T00:51:20;7.32;;;4.78;;
17886;SDS011;9069;52.044;7.472;2022-12-07T00:53:49;7.20;;;5.07;;
17886;SDS011;9069;52.044;7.472;2022-12-07T00:56:18;7.35;;;4.95;;
17886;SDS011;9069;52.044;7.472;2022-12-07T00:58:50;10.50;;;5.18;;
17886;SDS011;9069;52.044;7.472;2022-12-07T01:01:22;11.38;;;5.60;;
17886;SDS011;9069;52.044;7.472;2022-12-07T01:03:49;6.68;;;4.60;;
17886;SDS011;9069;52.044;7.472;2022-12-07T01:06:17;11.85;;;4.88;;
17886;SDS011;9069;52.044;7.472;2022-12-07T01:08:45;6.75;;;4.72;;
17886;SDS011;9069;52.044;7.472;2022-12-07T01:11:13;7.80;;;4.65;;
17886;SDS011;9069;52.044;7.472;2022-12-07T01:13:45;8.07;;;4.85;;
17886;SDS011;9069;52.044;7.472;2022-12-07T01:16:13;6.43;;;4.53;;
17886;SDS011;9069;52.044;7.472;2022-12-07T01:18:41;7.35;;;4.55;;
17886;SDS011;9069;52.044;7.472;2022-12-07T01:21:10;5.57;;;4.45;;
17886;SDS011;9069;52.044;7.472;2022-12-07T01:23:39;6.05;;;4.60;;
17886;SDS011;9069;52.044;7.472;2022-12-07T01:26:07;8.35;;;5.22;;
17886;SDS011;9069;52.044;7.472;2022-12-07T01:28:36;9.15;;;4.88;;
17886;SDS011;9069;52.044;7.472;2022-12-07T01:31:06;7.55;;;3.75;;
17886;SDS011;9069;52.044;7.472;2022-12-07T01:33:38;7.22;;;4.20;;
17886;SDS011;9069;52.044;7.472;2022-12-07T01:36:48;6.20;;;4.72;;
17886;SDS011;9069;52.044;7.472;2022-12-07T01:39:00;5.80;;;4.22;;
17886;SDS011;9069;52.044;7.472;2022-12-07T01:41:30;7.60;;;4.80;;
17886;SDS011;9069;52.044;7.472;2022-12-07T01:49:31;7.47;;;4.90;;
17886;SDS011;9069;52.044;7.472;2022-12-07T01:52:06;6.20;;;4.55;;
17886;SDS011;9069;52.044;7.472;2022-12-07T01:54:46;8.65;;;4.63;;
17886;SDS011;9069;52.044;7.472;2022-12-07T01:57:14;5.97;;;4.03;;
17886;SDS011;9069;52.044;7.472;2022-12-07T01:59:43;6.78;;;3.83;;
17886;SDS011;9069;52.044;7.472;2022-12-07T02:02:13;8.05;;;4.90;;
17886;SDS011;9069;52.044;7.472;2022-12-07T02:04:46;10.70;;;5.55;;
17886;SDS011;9069;52.044;7.472;2022-12-07T02:07:13;8.85;;;5.70;;
17886;SDS011;9069;52.044;7.472;2022-12-07T02:09:40;9.00;;;6.05;;
17886;SDS011;9069;52.044;7.472;2022-12-07T02:12:06;7.35;;;5.10;;
17886;SDS011;9069;52.044;7.472;2022-12-07T02:14:33;5.43;;;4.30;;
17886;SDS011;9069;52.044;7.472;2022-12-07T02:17:04;6.45;;;4.30;;
17886;SDS011;9069;52.044;7.472;2022-12-07T02:19:53;7.15;;;4.15;;
17886;SDS011;9069;52.044;7.472;2022-12-07T02:23:00;6.78;;;4.38;;
17886;SDS011;9069;52.044;7.472;2022-12-07T02:29:21;7.88;;;4.35;;
17886;SDS011;9069;52.044;7.472;2022-12-07T02:34:46;7.85;;;4.40;;
17886;SDS011;9069;52.044;7.472;2022-12-07T02:37:26;9.02;;;3.95;;
17886;SDS011;9069;52.044;7.472;2022-12-07T02:40:13;10.50;;;4.68;;
17886;SDS011;9069;52.044;7.472;2022-12-07T02:42:53;8.43;;;4.35;;
17886;SDS011;9069;52.044;7.472;2022-12-07T02:45:25;6.57;;;4.70;;
17886;SDS011;9069;52.044;7.472;2022-12-07T02:47:56;10.00;;;4.25;;
17886;SDS011;9069;52.044;7.472;2022-12-07T02:50:26;5.30;;;3.90;;
17886;SDS011;9069;52.044;7.472;2022-12-07T02:52:54;6.93;;;4.57;;
17886;SDS011;9069;52.044;7.472;2022-12-07T02:55:22;8.15;;;4.57;;
17886;SDS011;9069;52.044;7.472;2022-12-07T02:58:14;12.20;;;4.50;;
17886;SDS011;9069;52.044;7.472;2022-12-07T03:00:54;9.07;;;3.90;;
17886;SDS011;9069;52.044;7.472;2022-12-07T03:03:39;7.00;;;4.10;;
17886;SDS011;9069;52.044;7.472;2022-12-07T03:06:31;8.95;;;4.22;;
17886;SDS011;9069;52.044;7.472;2022-12-07T03:09:44;7.47;;;4.10;;
17886;SDS011;9069;52.044;7.472;2022-12-07T03:12:01;9.27;;;3.58;;
17886;SDS011;9069;52.044;7.472;2022-12-07T03:14:38;8.07;;;4.30;;
17886;SDS011;9069;52.044;7.472;2022-12-07T03:19:45;9.07;;;4.05;;
17886;SDS011;9069;52.044;7.472;2022-12-07T03:22:13;6.57;;;3.50;;
17886;SDS011;9069;52.044;7.472;2022-12-07T03:24:51;7.03;;;3.95;;
17886;SDS011;9069;52.044;7.472;2022-12-07T03:27:24;8.38;;;3.80;;
17886;SDS011;9069;52.044;7.472;2022-12-07T03:29:59;7.63;;;3.47;;
17886;SDS011;9069;52.044;7.472;2022-12-07T03:35:18;9.15;;;2.90;;
17886;SDS011;9069;52.044;7.472;2022-12-07T03:37:52;6.07;;;2.92;;
17886;SDS011;9069;52.044;7.472;2022-12-07T03:40:24;6.97;;;3.35;;
17886;SDS011;9069;52.044;7.472;2022-12-07T03:42:58;4.35;;;2.70;;
17886;SDS011;9069;52.044;7.472;2022-12-07T03:45:38;4.63;;;2.55;;
17886;SDS011;9069;52.044;7.472;2022-12-07T03:51:20;6.30;;;2.95;;
17886;SDS011;9069;52.044;7.472;2022-12-07T03:54:18;7.32;;;3.05;;
17886;SDS011;9069;52.044;7.472;2022-12-07T03:57:01;10.88;;;2.70;;
17886;SDS011;9069;52.044;7.472;2022-12-07T03:59:28;4.88;;;2.95;;
17886;SDS011;9069;52.044;7.472;2022-12-07T04:01:57;6.22;;;3.47;;
17886;SDS011;9069;52.044;7.472;2022-12-07T04:04:28;3.50;;;2.50;;
17886;SDS011;9069;52.044;7.472;2022-12-07T04:06:55;11.27;;;3.05;;
17886;SDS011;9069;52.044;7.472;2022-12-07T04:09:22;7.20;;;2.83;;
17886;SDS011;9069;52.044;7.472;2022-12-07T04:11:48;4.50;;;2.78;;
17886;SDS011;9069;52.044;7.472;2022-12-07T04:14:15;8.32;;;2.60;;
17886;SDS011;9069;52.044;7.472;2022-12-07T04:16:45;7.13;;;3.08;;
17886;SDS011;9069;52.044;7.472;2022-12-07T04:19:12;6.40;;;2.97;;
17886;SDS011;9069;52.044;7.472;2022-12-07T04:21:39;5.95;;;2.72;;
17886;SDS011;9069;52.044;7.472;2022-12-07T04:24:06;12.80;;;3.42;;
17886;SDS011;9069;52.044;7.472;2022-12-07T04:26:33;6.10;;;2.95;;
17886;SDS011;9069;52.044;7.472;2022-12-07T04:28:59;9.93;;;2.47;;
17886;SDS011;9069;52.044;7.472;2022-12-07T04:31:32;7.17;;;2.87;;
17886;SDS011;9069;52.044;7.472;2022-12-07T04:33:59;5.47;;;2.90;;
17886;SDS011;9069;52.044;7.472;2022-12-07T04:36:26;5.50;;;2.35;;
17886;SDS011;9069;52.044;7.472;2022-12-07T04:38:53;7.40;;;2.58;;
17886;SDS011;9069;52.044;7.472;2022-12-07T04:41:21;6.28;;;2.70;;
17886;SDS011;9069;52.044;7.472;2022-12-07T04:43:53;7.15;;;2.95;;
17886;SDS011;9069;52.044;7.472;2022-12-07T04:46:24;9.68;;;2.55;;
17886;SDS011;9069;52.044;7.472;2022-12-07T04:48:52;4.72;;;2.45;;
17886;SDS011;9069;52.044;7.472;2022-12-07T04:51:21;8.55;;;2.40;;
17886;SDS011;9069;52.044;7.472;2022-12-07T04:53:49;8.50;;;2.75;;
17886;SDS011;9069;52.044;7.472;2022-12-07T04:56:16;6.40;;;2.53;;
17886;SDS011;9069;52.044;7.472;2022-12-07T04:58:44;7.07;;;2.28;;
17886;SDS011;9069;52.044;7.472;2022-12-07T05:01:12;5.53;;;2.75;;
17886;SDS011;9069;52.044;7.472;2022-12-07T05:03:40;4.03;;;2.35;;
17886;SDS011;9069;52.044;7.472;2022-12-07T05:06:07;6.85;;;2.70;;
17886;SDS011;9069;52.044;7.472;2022-12-07T05:08:38;4.07;;;2.55;;
17886;SDS011;9069;52.044;7.472;2022-12-07T05:11:06;7.95;;;2.47;;
17886;SDS011;9069;52.044;7.472;2022-12-07T05:13:33;3.30;;;2.00;;
17886;SDS011;9069;52.044;7.472;2022-12-07T05:16:00;5.03;;;2.45;;
17886;SDS011;9069;52.044;7.472;2022-12-07T05:18:27;7.25;;;2.50;;
17886;SDS011;9069;52.044;7.472;2022-12-07T05:20:54;4.90;;;2.20;;
17886;SDS011;9069;52.044;7.472;2022-12-07T05:23:21;6.57;;;2.05;;
17886;SDS011;9069;52.044;7.472;2022-12-07T05:25:47;5.50;;;1.70;;
17886;SDS011;9069;52.044;7.472;2022-12-07T05:28:14;5.35;;;2.05;;
17886;SDS011;9069;52.044;7.472;2022-12-07T05:30:41;9.07;;;2.38;;
17886;SDS011;9069;52.044;7.472;2022-12-07T05:33:07;4.75;;;2.10;;
17886;SDS011;9069;52.044;7.472;2022-12-07T05:35:34;6.47;;;2.25;;
17886;SDS011;9069;52.044;7.472;2022-12-07T05:38:01;9.13;;;2.20;;
17886;SDS011;9069;52.044;7.472;2022-12-07T05:40:27;7.18;;;2.20;;
17886;SDS011;9069;52.044;7.472;2022-12-07T05:42:54;5.55;;;1.85;;
17886;SDS011;9069;52.044;7.472;2022-12-07T05:45:27;6.03;;;2.20;;
17886;SDS011;9069;52.044;7.472;2022-12-07T05:47:54;4.13;;;1.75;;
17886;SDS011;9069;52.044;7.472;2022-12-07T05:50:21;7.55;;;2.30;;
17886;SDS011;9069;52.044;7.472;2022-12-07T05:52:58;6.60;;;1.70;;
17886;SDS011;9069;52.044;7.472;2022-12-07T05:55:25;6.38;;;1.85;;
17886;SDS011;9069;52.044;7.472;2022-12-07T05:57:52;5.05;;;1.75;;
17886;SDS011;9069;52.044;7.472;2022-12-07T06:00:37;10.68;;;1.67;;
17886;SDS011;9069;52.044;7.472;2022-12-07T06:03:04;2.50;;;1.40;;
17886;SDS011;9069;52.044;7.472;2022-12-07T06:05:31;4.70;;;1.80;;
17886;SDS011;9069;52.044;7.472;2022-12-07T06:07:57;3.55;;;1.67;;
17886;SDS011;9069;52.044;7.472;2022-12-07T06:10:30;3.67;;;1.60;;
17886;SDS011;9069;52.044;7.472;2022-12-07T06:12:57;4.93;;;1.83;;
17886;SDS011;9069;52.044;7.472;2022-12-07T06:15:24;3.03;;;1.58;;
17886;SDS011;9069;52.044;7.472;2022-12-07T06:17:50;7.32;;;1.77;;
17886;SDS011;9069;52.044;7.472;2022-12-07T06:20:17;3.22;;;1.65;;
17886;SDS011;9069;52.044;7.472;2022-12-07T06:22:44;7.17;;;2.53;;
17886;SDS011;9069;52.044;7.472;2022-12-07T06:25:10;8.13;;;1.63;;
17886;SDS011;9069;52.044;7.472;2022-12-07T06:27:37;4.10;;;1.60;;
17886;SDS011;9069;52.044;7.472;2022-12-07T06:30:04;10.13;;;1.60;;
17886;SDS011;9069;52.044;7.472;2022-12-07T06:32:33;8.00;;;2.15;;
17886;SDS011;9069;52.044;7.472;2022-12-07T06:35:00;2.80;;;1.92;;
17886;SDS011;9069;52.044;7.472;2022-12-07T06:37:27;8.38;;;1.90;;
17886;SDS011;9069;52.044;7.472;2022-12-07T06:39:53;11.07;;;2.28;;
17886;SDS011;9069;52.044;7.472;2022-12-07T06:42:20;5.90;;;1.70;;
17886;SDS011;9069;52.044;7.472;2022-12-07T06:44:47;5.55;;;1.65;;
17886;SDS011;9069;52.044;7.472;2022-12-07T06:47:13;5.60;;;2.33;;
17886;SDS011;9069;52.044;7.472;2022-12-07T06:50:00;7.30;;;2.55;;
17886;SDS011;9069;52.044;7.472;2022-12-07T06:52:27;4.82;;;2.13;;
17886;SDS011;9069;52.044;7.472;2022-12-07T06:54:54;3.85;;;1.73;;
17886;SDS011;9069;52.044;7.472;2022-12-07T06:57:21;7.78;;;2.08;;
17886;SDS011;9069;52.044;7.472;2022-12-07T06:59:48;5.53;;;1.80;;
17886;SDS011;9069;52.044;7.472;2022-12-07T07:02:15;6.70;;;1.63;;
17886;SDS011;9069;52.044;7.472;2022-12-07T07:04:42;9.50;;;3.20;;
17886;SDS011;9069;52.044;7.472;2022-12-07T07:07:09;10.27;;;4.22;;
17886;SDS011;9069;52.044;7.472;2022-12-07T07:09:35;6.88;;;2.95;;
17886;SDS011;9069;52.044;7.472;2022-12-07T07:12:02;6.10;;;2.00;;
17886;SDS011;9069;52.044;7.472;2022-12-07T07:14:29;6.75;;;2.20;;
17886;SDS011;9069;52.044;7.472;2022-12-07T07:16:55;8.87;;;2.20;;
17886;SDS011;9069;52.044;7.472;2022-12-07T07:19:22;5.57;;;1.93;;
17886;SDS011;9069;52.044;7.472;2022-12-07T07:21:49;10.88;;;2.92;;
17886;SDS011;9069;52.044;7.472;2022-12-07T07:24:15;4.28;;;2.28;;
17886;SDS011;9069;52.044;7.472;2022-12-07T07:26:42;9.05;;;2.92;;
17886;SDS011;9069;52.044;7.472;2022-12-07T07:29:09;3.60;;;1.92;;
17886;SDS011;9069;52.044;7.472;2022-12-07T07:31:36;4.85;;;2.17;;
17886;SDS011;9069;52.044;7.472;2022-12-07T07:34:03;4.75;;;2.10;;
17886;SDS011;9069;52.044;7.472;2022-12-07T07:36:30;6.07;;;1.75;;
17886;SDS011;9069;52.044;7.472;2022-12-07T07:38:57;13.23;;;1.70;;
17886;SDS011;9069;52.044;7.472;2022-12-07T07:41:24;5.55;;;1.58;;
17886;SDS011;9069;52.044;7.472;2022-12-07T07:43:50;8.43;;;2.65;;
17886;SDS011;9069;52.044;7.472;2022-12-07T07:46:17;5.47;;;2.15;;
17886;SDS011;9069;52.044;7.472;2022-12-07T07:48:44;3.47;;;1.70;;
17886;SDS011;9069;52.044;7.472;2022-12-07T07:51:10;5.30;;;1.25;;
17886;SDS011;9069;52.044;7.472;2022-12-07T07:53:37;11.95;;;1.48;;
17886;SDS011;9069;52.044;7.472;2022-12-07T07:56:03;5.45;;;2.10;;
17886;SDS011;9069;52.044;7.472;2022-12-07T07:58:30;11.70;;;1.83;;
17886;SDS011;9069;52.044;7.472;2022-12-07T08:00:57;6.95;;;2.13;;
17886;SDS011;9069;52.044;7.472;2022-12-07T08:03:30;4.95;;;2.30;;
17886;SDS011;9069;52.044;7.472;2022-12-07T08:05:56;11.90;;;4.00;;
17886;SDS011;9069;52.044;7.472;2022-12-07T08:08:23;9.32;;;2.75;;
17886;SDS011;9069;52.044;7.472;2022-12-07T08:10:50;6.07;;;3.00;;
17886;SDS011;9069;52.044;7.472;2022-12-07T08:13:17;2.60;;;1.42;;
17886;SDS011;9069;52.044;7.472;2022-12-07T08:15:44;5.82;;;2.05;;
17886;SDS011;9069;52.044;7.472;2022-12-07T08:18:13;6.72;;;1.92;;
17886;SDS011;9069;52.044;7.472;2022-12-07T08:20:41;6.38;;;1.70;;
17886;SDS011;9069;52.044;7.472;2022-12-07T08:23:09;9.35;;;3.05;;
17886;SDS011;9069;52.044;7.472;2022-12-07T08:25:36;7.33;;;2.13;;
17886;SDS011;9069;52.044;7.472;2022-12-07T08:28:03;4.50;;;1.85;;
17886;SDS011;9069;52.044;7.472;2022-12-07T08:30:30;4.40;;;1.50;;
17886;SDS011;9069;52.044;7.472;2022-12-07T08:32:56;4.13;;;1.80;;
17886;SDS011;9069;52.044;7.472;2022-12-07T08:35:24;7.13;;;1.98;;
17886;SDS011;9069;52.044;7.472;2022-12-07T08:37:52;7.38;;;2.30;;
17886;SDS011;9069;52.044;7.472;2022-12-07T08:40:18;6.50;;;2.05;;
17886;SDS011;9069;52.044;7.472;2022-12-07T08:42:50;2.28;;;1.45;;
17886;SDS011;9069;52.044;7.472;2022-12-07T08:45:17;5.03;;;1.40;;
17886;SDS011;9069;52.044;7.472;2022-12-07T08:48:02;7.10;;;2.17;;
17886;SDS011;9069;52.044;7.472;2022-12-07T08:50:34;4.03;;;1.77;;
17886;SDS011;9069;52.044;7.472;2022-12-07T08:53:03;4.25;;;1.40;;
17886;SDS011;9069;52.044;7.472;2022-12-07T08:55:31;6.95;;;1.75;;
17886;SDS011;9069;52.044;7.472;2022-12-07T08:57:59;4.22;;;1.50;;
17886;SDS011;9069;52.044;7.472;2022-12-07T09:00:28;8.00;;;1.60;;
17886;SDS011;9069;52.044;7.472;2022-12-07T09:02:55;6.18;;;1.33;;
17886;SDS011;9069;52.044;7.472;2022-12-07T09:05:21;5.87;;;1.80;;
17886;SDS011;9069;52.044;7.472;2022-12-07T09:07:50;4.97;;;1.40;;
17886;SDS011;9069;52.044;7.472;2022-12-07T09:10:21;5.50;;;1.30;;
17886;SDS011;9069;52.044;7.472;2022-12-07T09:12:47;6.82;;;2.83;;
17886;SDS011;9069;52.044;7.472;2022-12-07T09:15:14;19.13;;;6.93;;
17886;SDS011;9069;52.044;7.472;2022-12-07T09:17:41;7.28;;;2.97;;
17886;SDS011;9069;52.044;7.472;2022-12-07T09:20:07;9.45;;;3.15;;
17886;SDS011;9069;52.044;7.472;2022-12-07T09:22:34;5.88;;;1.63;;
17886;SDS011;9069;52.044;7.472;2022-12-07T09:25:02;4.63;;;1.80;;
17886;SDS011;9069;52.044;7.472;2022-12-07T09:27:29;7.97;;;2.40;;
17886;SDS011;9069;52.044;7.472;2022-12-07T09:29:56;10.88;;;2.70;;
17886;SDS011;9069;52.044;7.472;2022-12-07T09:32:23;3.22;;;1.52;;
17886;SDS011;9069;52.044;7.472;2022-12-07T09:34:50;7.78;;;1.73;;
17886;SDS011;9069;52.044;7.472;2022-12-07T09:37:17;4.95;;;2.15;;
17886;SDS011;9069;52.044;7.472;2022-12-07T09:39:44;10.60;;;2.50;;
17886;SDS011;9069;52.044;7.472;2022-12-07T09:42:37;12.60;;;2.55;;
17886;SDS011;9069;52.044;7.472;2022-12-07T09:45:06;8.77;;;2.88;;
17886;SDS011;9069;52.044;7.472;2022-12-07T09:47:38;6.07;;;2.28;;
17886;SDS011;9069;52.044;7.472;2022-12-07T09:50:05;5.70;;;2.08;;
17886;SDS011;9069;52.044;7.472;2022-12-07T09:52:39;7.35;;;2.30;;
17886;SDS011;9069;52.044;7.472;2022-12-07T09:55:13;8.18;;;2.10;;
17886;SDS011;9069;52.044;7.472;2022-12-07T09:57:53;5.57;;;1.80;;
17886;SDS011;9069;52.044;7.472;2022-12-07T10:00:21;4.80;;;1.67;;
17886;SDS011;9069;52.044;7.472;2022-12-07T10:05:30;4.65;;;1.45;;
17886;SDS011;9069;52.044;7.472;2022-12-07T10:08:04;8.07;;;2.13;;
17886;SDS011;9069;52.044;7.472;2022-12-07T10:10:32;3.20;;;1.73;;
17886;SDS011;9069;52.044;7.472;2022-12-07T10:13:06;6.55;;;1.50;;
17886;SDS011;9069;52.044;7.472;2022-12-07T10:15:51;11.48;;;2.33;;
17886;SDS011;9069;52.044;7.472;2022-12-07T10:23:38;2.22;;;1.17;;
17886;SDS011;9069;52.044;7.472;2022-12-07T10:32:08;6.75;;;1.50;;
17886;SDS011;9069;52.044;7.472;2022-12-07T10:37:49;3.88;;;1.52;;
17886;SDS011;9069;52.044;7.472;2022-12-07T10:40:25;5.15;;;1.50;;
17886;SDS011;9069;52.044;7.472;2022-12-07T10:45:29;5.57;;;1.80;;
17886;SDS011;9069;52.044;7.472;2022-12-07T10:50:41;8.65;;;2.03;;
17886;SDS011;9069;52.044;7.472;2022-12-07T10:56:37;8.75;;;2.55;;
17886;SDS011;9069;52.044;7.472;2022-12-07T10:59:13;5.53;;;1.98;;
17886;SDS011;9069;52.044;7.472;2022-12-07T11:04:53;3.65;;;1.55;;
17886;SDS011;9069;52.044;7.472;2022-12-07T11:07:45;6.50;;;2.22;;
17886;SDS011;9069;52.044;7.472;2022-12-07T11:10:30;3.03;;;1.60;;
17886;SDS011;9069;52.044;7.472;2022-12-07T11:21:56;4.60;;;1.70;;
17886;SDS011;9069;52.044;7.472;2022-12-07T11:24:26;3.70;;;1.67;;
17886;SDS011;9069;52.044;7.472;2022-12-07T11:27:08;4.22;;;1.58;;
17886;SDS011;9069;52.044;7.472;2022-12-07T11:37:25;9.48;;;1.65;;
17886;SDS011;9069;52.044;7.472;2022-12-07T11:43:18;7.68;;;1.77;;
17886;SDS011;9069;52.044;7.472;2022-12-07T11:45:44;6.85;;;3.25;;
17886;SDS011;9069;52.044;7.472;2022-12-07T11:48:23;7.70;;;2.70;;
17886;SDS011;9069;52.044;7.472;2022-12-07T11:50:58;6.72;;;2.10;;
17886;SDS011;9069;52.044;7.472;2022-12-07T11:53:41;7.93;;;2.30;;
17886;SDS011;9069;52.044;7.472;2022-12-07T11:56:30;8.63;;;2.10;;
17886;SDS011;9069;52.044;7.472;2022-12-07T11:59:07;10.32;;;4.75;;
17886;SDS011;9069;52.044;7.472;2022-12-07T12:01:46;9.52;;;2.67;;
17886;SDS011;9069;52.044;7.472;2022-12-07T12:04:32;15.85;;;7.65;;
17886;SDS011;9069;52.044;7.472;2022-12-07T12:07:24;9.80;;;3.20;;
17886;SDS011;9069;52.044;7.472;2022-12-07T12:18:51;8.88;;;1.88;;
17886;SDS011;9069;52.044;7.472;2022-12-07T12:21:33;6.22;;;2.35;;
17886;SDS011;9069;52.044;7.472;2022-12-07T12:24:03;11.50;;;2.03;;
17886;SDS011;9069;52.044;7.472;2022-12-07T12:26:40;6.88;;;1.73;;
17886;SDS011;9069;52.044;7.472;2022-12-07T12:29:21;5.75;;;1.70;;
17886;SDS011;9069;52.044;7.472;2022-12-07T12:42:52;8.93;;;4.05;;
17886;SDS011;9069;52.044;7.472;2022-12-07T12:45:28;7.97;;;2.85;;
17886;SDS011;9069;52.044;7.472;2022-12-07T12:53:31;9.50;;;2.65;;
17886;SDS011;9069;52.044;7.472;2022-12-07T12:56:03;10.43;;;2.97;;
17886;SDS011;9069;52.044;7.472;2022-12-07T12:58:49;11.07;;;3.60;;
17886;SDS011;9069;52.044;7.472;2022-12-07T13:01:56;5.38;;;1.98;;
17886;SDS011;9069;52.044;7.472;2022-12-07T13:18:41;17.17;;;7.95;;
17886;SDS011;9069;52.044;7.472;2022-12-07T13:31:47;14.93;;;3.45;;
17886;SDS011;9069;52.044;7.472;2022-12-07T13:36:56;19.95;;;5.57;;
17886;SDS011;9069;52.044;7.472;2022-12-07T13:39:26;13.73;;;5.38;;
17886;SDS011;9069;52.044;7.472;2022-12-07T13:41:57;10.30;;;3.97;;
17886;SDS011;9069;52.044;7.472;2022-12-07T13:44:26;13.27;;;5.13;;
17886;SDS011;9069;52.044;7.472;2022-12-07T13:47:07;9.60;;;2.70;;
17886;SDS011;9069;52.044;7.472;2022-12-07T13:49:49;8.02;;;2.33;;
17886;SDS011;9069;52.044;7.472;2022-12-07T13:54:48;11.02;;;4.53;;
17886;SDS011;9069;52.044;7.472;2022-12-07T13:57:16;9.00;;;2.60;;
17886;SDS011;9069;52.044;7.472;2022-12-07T13:59:43;8.27;;;2.30;;
17886;SDS011;9069;52.044;7.472;2022-12-07T14:02:21;4.68;;;1.63;;
17886;SDS011;9069;52.044;7.472;2022-12-07T14:07:54;8.52;;;1.58;;
17886;SDS011;9069;52.044;7.472;2022-12-07T14:10:26;8.27;;;1.50;;
17886;SDS011;9069;52.044;7.472;2022-12-07T14:12:54;8.10;;;1.55;;
17886;SDS011;9069;52.044;7.472;2022-12-07T14:15:22;10.27;;;1.60;;
17886;SDS011;9069;52.044;7.472;2022-12-07T14:17:55;5.60;;;1.67;;
17886;SDS011;9069;52.044;7.472;2022-12-07T14:22:59;4.05;;;1.08;;
17886;SDS011;9069;52.044;7.472;2022-12-07T14:25:44;5.38;;;1.20;;
17886;SDS011;9069;52.044;7.472;2022-12-07T14:28:33;7.72;;;1.27;;
17886;SDS011;9069;52.044;7.472;2022-12-07T14:31:01;2.40;;;1.05;;
17886;SDS011;9069;52.044;7.472;2022-12-07T14:33:29;2.40;;;0.90;;
17886;SDS011;9069;52.044;7.472;2022-12-07T14:35:56;6.30;;;1.33;;
17886;SDS011;9069;52.044;7.472;2022-12-07T14:38:24;5.47;;;0.90;;
17886;SDS011;9069;52.044;7.472;2022-12-07T14:40:52;6.47;;;1.00;;
17886;SDS011;9069;52.044;7.472;2022-12-07T14:43:20;2.58;;;1.00;;
17886;SDS011;9069;52.044;7.472;2022-12-07T14:45:46;3.35;;;0.70;;
17886;SDS011;9069;52.044;7.472;2022-12-07T14:48:14;2.17;;;0.85;;
17886;SDS011;9069;52.044;7.472;2022-12-07T14:51:01;7.18;;;1.35;;
17886;SDS011;9069;52.044;7.472;2022-12-07T14:53:50;4.82;;;1.38;;
17886;SDS011;9069;52.044;7.472;2022-12-07T14:56:23;2.25;;;0.70;;
17886;SDS011;9069;52.044;7.472;2022-12-07T14:58:50;3.15;;;1.30;;
17886;SDS011;9069;52.044;7.472;2022-12-07T15:01:17;9.57;;;1.15;;
17886;SDS011;9069;52.044;7.472;2022-12-07T15:03:44;8.63;;;1.30;;
17886;SDS011;9069;52.044;7.472;2022-12-07T15:06:13;5.35;;;1.52;;
17886;SDS011;9069;52.044;7.472;2022-12-07T15:08:41;7.05;;;1.70;;
17886;SDS011;9069;52.044;7.472;2022-12-07T15:11:13;7.45;;;1.58;;
17886;SDS011;9069;52.044;7.472;2022-12-07T15:13:41;8.07;;;2.97;;
17886;SDS011;9069;52.044;7.472;2022-12-07T15:16:26;6.20;;;3.17;;
17886;SDS011;9069;52.044;7.472;2022-12-07T15:19:09;15.85;;;6.57;;
17886;SDS011;9069;52.044;7.472;2022-12-07T15:21:56;38.40;;;14.20;;
17886;SDS011;9069;52.044;7.472;2022-12-07T15:24:24;45.42;;;19.08;;
17886;SDS011;9069;52.044;7.472;2022-12-07T15:26:51;24.42;;;13.20;;
17886;SDS011;9069;52.044;7.472;2022-12-07T15:29:18;14.07;;;6.13;;
17886;SDS011;9069;52.044;7.472;2022-12-07T15:31:49;9.27;;;3.83;;
17886;SDS011;9069;52.044;7.472;2022-12-07T15:34:23;6.43;;;2.35;;
17886;SDS011;9069;52.044;7.472;2022-12-07T15:36:51;8.02;;;2.67;;
17886;SDS011;9069;52.044;7.472;2022-12-07T15:39:17;8.55;;;3.65;;
17886;SDS011;9069;52.044;7.472;2022-12-07T15:41:44;7.80;;;2.38;;
17886;SDS011;9069;52.044;7.472;2022-12-07T15:44:11;5.95;;;2.75;;
17886;SDS011;9069;52.044;7.472;2022-12-07T15:46:57;8.50;;;2.30;;
17886;SDS011;9069;52.044;7.472;2022-12-07T15:49:24;6.07;;;2.38;;
17886;SDS011;9069;52.044;7.472;2022-12-07T15:51:51;8.18;;;3.03;;
17886;SDS011;9069;52.044;7.472;2022-12-07T15:54:20;7.68;;;2.50;;
17886;SDS011;9069;52.044;7.472;2022-12-07T15:56:51;8.55;;;2.95;;
17886;SDS011;9069;52.044;7.472;2022-12-07T15:59:18;5.38;;;2.67;;
17886;SDS011;9069;52.044;7.472;2022-12-07T16:01:45;8.05;;;3.20;;
17886;SDS011;9069;52.044;7.472;2022-12-07T16:04:12;6.43;;;2.50;;
17886;SDS011;9069;52.044;7.472;2022-12-07T16:06:39;7.45;;;2.70;;
17886;SDS011;9069;52.044;7.472;2022-12-07T16:09:06;8.05;;;3.13;;
17886;SDS011;9069;52.044;7.472;2022-12-07T16:11:33;13.35;;;3.17;;
17886;SDS011;9069;52.044;7.472;2022-12-07T16:14:00;10.20;;;4.13;;
17886;SDS011;9069;52.044;7.472;2022-12-07T16:16:26;8.85;;;3.70;;
17886;SDS011;9069;52.044;7.472;2022-12-07T16:18:54;9.77;;;2.92;;
17886;SDS011;9069;52.044;7.472;2022-12-07T16:21:21;6.30;;;2.60;;
17886;SDS011;9069;52.044;7.472;2022-12-07T16:23:50;7.40;;;2.58;;
17886;SDS011;9069;52.044;7.472;2022-12-07T16:26:18;6.78;;;3.78;;
17886;SDS011;9069;52.044;7.472;2022-12-07T16:28:50;7.47;;;4.18;;
17886;SDS011;9069;52.044;7.472;2022-12-07T16:31:19;8.52;;;3.90;;
17886;SDS011;9069;52.044;7.472;2022-12-07T16:33:48;8.30;;;3.28;;
17886;SDS011;9069;52.044;7.472;2022-12-07T16:36:15;5.40;;;3.13;;
17886;SDS011;9069;52.044;7.472;2022-12-07T16:39:02;9.80;;;2.90;;
17886;SDS011;9069;52.044;7.472;2022-12-07T16:41:30;8.15;;;2.70;;
17886;SDS011;9069;52.044;7.472;2022-12-07T16:43:57;9.52;;;2.70;;
17886;SDS011;9069;52.044;7.472;2022-12-07T16:46:31;11.18;;;2.42;;
17886;SDS011;9069;52.044;7.472;2022-12-07T16:48:59;7.82;;;3.45;;
17886;SDS011;9069;52.044;7.472;2022-12-07T16:51:26;8.20;;;3.03;;
17886;SDS011;9069;52.044;7.472;2022-12-07T16:53:53;8.63;;;3.35;;
17886;SDS011;9069;52.044;7.472;2022-12-07T16:56:20;8.48;;;3.20;;
17886;SDS011;9069;52.044;7.472;2022-12-07T16:58:46;7.60;;;3.10;;
17886;SDS011;9069;52.044;7.472;2022-12-07T17:01:19;12.25;;;5.53;;
17886;SDS011;9069;52.044;7.472;2022-12-07T17:03:48;8.73;;;4.53;;
17886;SDS011;9069;52.044;7.472;2022-12-07T17:08:44;10.10;;;4.18;;
17886;SDS011;9069;52.044;7.472;2022-12-07T17:11:15;5.78;;;2.80;;
17886;SDS011;9069;52.044;7.472;2022-12-07T17:13:44;7.53;;;2.97;;
17886;SDS011;9069;52.044;7.472;2022-12-07T17:16:29;6.05;;;3.30;;
17886;SDS011;9069;52.044;7.472;2022-12-07T17:18:56;6.50;;;3.78;;
17886;SDS011;9069;52.044;7.472;2022-12-07T17:21:23;8.55;;;4.38;;
17886;SDS011;9069;52.044;7.472;2022-12-07T17:23:50;9.00;;;3.30;;
17886;SDS011;9069;52.044;7.472;2022-12-07T17:26:23;12.70;;;5.10;;
17886;SDS011;9069;52.044;7.472;2022-12-07T17:28:57;6.82;;;3.60;;
17886;SDS011;9069;52.044;7.472;2022-12-07T17:31:24;8.52;;;3.45;;
17886;SDS011;9069;52.044;7.472;2022-12-07T17:33:51;7.63;;;4.13;;
17886;SDS011;9069;52.044;7.472;2022-12-07T17:36:19;10.75;;;5.68;;